Archiv-/Tagesdaten

--Timestamp---	Temp	Chill	HIndex	Humid	Dewpt	 Wind 	HiWind	WindDir	Rain 	Barom	Solar	 ET  	 UV 
--------------	----	-----	------	-----	-----	------	------	-------	-----	-----	-----	-----	----
20090614 00:00	14.2	14.2	14.2	75	9.8	2	3	315	0.0	1019.5	0	0.025	0.0
20090614 00:05	14.1	14.1	14.1	75	9.7	0	5	292	0.0	1019.5	0	0.000	0.0
20090614 00:10	14.0	14.0	14.0	76	9.8	0	5	292	0.0	1019.5	0	0.000	0.0
20090614 00:15	13.9	13.9	13.9	77	10.0	2	5	292	0.0	1019.5	0	0.000	0.0
20090614 00:20	13.8	13.8	13.8	77	9.9	3	5	292	0.0	1019.6	0	0.000	0.0
20090614 00:25	13.8	13.8	13.8	77	9.8	3	5	292	0.0	1019.6	0	0.000	0.0
20090614 00:30	13.7	13.7	13.7	77	9.7	2	5	292	0.0	1019.6	0	0.000	0.0
20090614 00:35	13.6	13.6	13.6	77	9.7	2	5	292	0.0	1019.6	0	0.000	0.0
20090614 00:40	13.5	13.5	13.5	77	9.5	3	6	292	0.0	1019.7	0	0.000	0.0
20090614 00:45	13.4	13.4	13.4	77	9.5	2	5	292	0.0	1019.7	0	0.000	0.0
20090614 00:50	13.4	13.4	13.4	77	9.4	2	5	292	0.0	1019.7	0	0.000	0.0
20090614 00:55	13.3	13.3	13.3	77	9.4	2	5	292	0.0	1019.7	0	0.000	0.0
20090614 01:00	13.2	13.2	13.2	78	9.5	0	2	292	0.0	1019.8	0	0.025	0.0
20090614 01:05	13.3	13.3	13.3	78	9.5	0	5	292	0.0	1019.7	0	0.000	0.0
20090614 01:10	13.3	13.3	13.3	78	9.5	2	5	292	0.0	1019.8	0	0.000	0.0
20090614 01:15	13.3	13.3	13.3	78	9.5	0	3	292	0.0	1019.7	0	0.000	0.0
20090614 01:20	13.3	13.3	13.3	78	9.5	2	5	292	0.0	1019.8	0	0.000	0.0
20090614 01:25	13.2	13.2	13.2	78	9.5	0	0	-100000	0.0	1019.7	0	0.000	0.0
20090614 01:30	13.2	13.2	13.2	78	9.5	0	2	292	0.0	1019.7	0	0.000	0.0
20090614 01:35	13.2	13.2	13.2	78	9.4	0	3	292	0.0	1019.8	0	0.000	0.0
20090614 01:40	13.1	13.1	13.1	78	9.4	2	5	292	0.0	1019.8	0	0.000	0.0
20090614 01:45	13.1	13.1	13.1	78	9.3	0	2	292	0.0	1019.8	0	0.000	0.0
20090614 01:50	13.0	13.0	13.0	79	9.4	2	5	292	0.0	1019.8	0	0.000	0.0
20090614 01:55	12.9	12.9	12.9	79	9.4	3	6	292	0.0	1019.8	0	0.000	0.0
20090614 02:00	12.9	12.9	12.9	79	9.3	3	6	292	0.0	1019.7	0	0.025	0.0
20090614 02:05	12.8	12.8	12.8	79	9.3	3	6	225	0.0	1019.7	0	0.000	0.0
20090614 02:10	12.8	12.8	12.8	79	9.2	2	5	225	0.0	1019.8	0	0.000	0.0
20090614 02:15	12.7	12.7	12.7	79	9.2	2	6	225	0.0	1019.8	0	0.000	0.0
20090614 02:20	12.7	12.7	12.7	79	9.1	3	6	225	0.0	1019.7	0	0.000	0.0
20090614 02:25	12.7	12.7	12.7	79	9.1	5	8	225	0.0	1019.8	0	0.000	0.0
20090614 02:30	12.7	12.7	12.7	79	9.1	3	8	225	0.0	1019.8	0	0.000	0.0
20090614 02:35	12.6	12.6	12.6	79	9.0	3	8	225	0.0	1019.8	0	0.000	0.0
20090614 02:40	12.6	12.6	12.6	79	9.0	5	6	225	0.0	1019.8	0	0.000	0.0
20090614 02:45	12.5	12.5	12.5	79	9.0	5	8	225	0.0	1019.8	0	0.000	0.0
20090614 02:50	12.5	12.5	12.5	79	9.0	3	6	225	0.0	1019.7	0	0.000	0.0
20090614 02:55	12.4	12.4	12.4	79	8.9	3	6	225	0.0	1019.8	0	0.000	0.0
20090614 03:00	12.4	12.4	12.4	79	8.8	2	6	225	0.0	1019.9	0	0.025	0.0
20090614 03:05	12.3	12.3	12.3	79	8.8	2	5	225	0.0	1019.7	0	0.000	0.0
20090614 03:10	12.3	12.3	12.3	80	8.9	2	6	225	0.0	1019.7	0	0.000	0.0
20090614 03:15	12.2	12.2	12.2	80	8.8	3	8	225	0.0	1019.7	0	0.000	0.0
20090614 03:20	12.1	12.1	12.1	80	8.7	5	8	225	0.0	1019.7	0	0.000	0.0
20090614 03:25	12.0	12.0	12.0	80	8.7	5	8	225	0.0	1019.7	0	0.000	0.0
20090614 03:30	11.9	11.9	11.9	80	8.5	5	6	225	0.0	1019.8	0	0.000	0.0
20090614 03:35	11.8	11.8	11.8	81	8.6	3	6	225	0.0	1019.7	0	0.000	0.0
20090614 03:40	11.7	11.7	11.7	81	8.6	2	6	225	0.0	1019.7	0	0.000	0.0
20090614 03:45	11.6	11.6	11.6	81	8.5	2	5	225	0.0	1019.8	0	0.000	0.0
20090614 03:50	11.6	11.6	11.6	81	8.4	3	8	225	0.0	1019.8	0	0.000	0.0
20090614 03:55	11.4	11.4	11.4	81	8.3	2	5	225	0.0	1019.8	0	0.000	0.0
20090614 04:00	11.4	11.4	11.4	81	8.3	2	5	225	0.0	1019.9	0	0.025	0.0
20090614 04:05	11.4	11.4	11.4	81	8.2	2	6	225	0.0	1019.9	0	0.000	0.0
20090614 04:10	11.3	11.3	11.3	82	8.4	2	5	225	0.0	1019.9	0	0.000	0.0
20090614 04:15	11.3	11.3	11.3	82	8.3	2	6	225	0.0	1019.9	0	0.000	0.0
20090614 04:20	11.2	11.2	11.2	82	8.3	2	6	225	0.0	1019.9	0	0.000	0.0
20090614 04:25	11.1	11.1	11.1	82	8.2	3	6	225	0.0	1019.7	0	0.000	0.0
20090614 04:30	11.1	11.1	11.1	82	8.1	3	6	225	0.0	1019.8	0	0.000	0.0
20090614 04:35	10.9	10.9	10.9	82	8.0	2	6	225	0.0	1019.8	0	0.000	0.0
20090614 04:40	10.8	10.8	10.8	82	7.9	5	8	225	0.0	1019.9	0	0.000	0.0
20090614 04:45	10.8	10.8	10.8	82	7.9	3	6	225	0.0	1019.9	0	0.000	0.0
20090614 04:50	10.7	10.7	10.7	83	8.0	2	5	225	0.0	1019.9	0	0.000	0.0
20090614 04:55	10.7	10.7	10.7	83	7.9	3	8	225	0.0	1020.0	0	0.000	0.0
20090614 05:00	10.6	10.6	10.6	83	7.8	2	5	225	0.0	1019.9	0	0.025	0.0
20090614 05:05	10.6	10.6	10.6	83	7.8	3	6	225	0.0	1020.1	0	0.000	0.0
20090614 05:10	10.6	10.6	10.6	83	7.8	2	5	225	0.0	1020.2	0	0.000	0.0
20090614 05:15	10.5	10.5	10.5	83	7.7	2	5	225	0.0	1020.2	0	0.000	0.0
20090614 05:20	10.4	10.4	10.4	83	7.7	3	5	225	0.0	1020.1	3	0.000	0.0
20090614 05:25	10.4	10.4	10.4	83	7.7	3	6	225	0.0	1020.1	6	0.000	0.0
20090614 05:30	10.4	10.4	10.4	83	7.6	3	5	225	0.0	1020.1	8	0.000	0.0
20090614 05:35	10.3	10.3	10.3	83	7.6	2	5	225	0.0	1020.1	11	0.000	0.0
20090614 05:40	10.3	10.3	10.3	83	7.6	2	5	225	0.0	1020.1	12	0.000	0.0
20090614 05:45	10.3	10.3	10.3	83	7.6	2	5	225	0.0	1020.2	15	0.000	0.0
20090614 05:50	10.3	10.3	10.3	83	7.6	2	6	225	0.0	1020.2	18	0.000	0.0
20090614 05:55	10.4	10.4	10.4	83	7.6	2	5	225	0.0	1020.2	20	0.000	0.0
20090614 06:00	10.4	10.4	10.4	83	7.7	3	5	225	0.0	1020.2	24	0.000	0.0
20090614 06:05	10.4	10.4	10.4	83	7.7	2	5	225	0.0	1020.2	26	0.000	0.0
20090614 06:10	10.5	10.5	10.5	83	7.7	2	5	225	0.0	1020.3	29	0.000	0.0
20090614 06:15	10.6	10.6	10.6	83	7.8	3	6	225	0.0	1020.4	31	0.000	0.0
20090614 06:20	10.7	10.7	10.7	82	7.8	3	6	225	0.0	1020.4	33	0.000	0.0
20090614 06:25	10.8	10.8	10.8	82	7.9	2	6	225	0.0	1020.4	34	0.000	0.0
20090614 06:30	10.9	10.9	10.9	82	8.0	3	8	225	0.0	1020.4	36	0.000	0.0
20090614 06:35	11.1	11.1	11.1	82	8.1	3	6	225	0.0	1020.4	39	0.000	0.0
20090614 06:40	11.2	11.2	11.2	82	8.2	3	6	225	0.0	1020.4	84	0.000	0.0
20090614 06:45	11.3	11.3	11.3	81	8.2	5	8	225	0.0	1020.4	152	0.000	0.0
20090614 06:50	11.6	11.6	11.6	81	8.5	3	8	225	0.0	1020.4	167	0.000	0.0
20090614 06:55	11.9	11.9	11.9	80	8.6	5	8	225	0.0	1020.4	182	0.000	0.0
20090614 07:00	12.2	12.2	12.2	80	8.8	5	8	225	0.0	1020.3	198	0.051	0.2
20090614 07:05	12.4	12.4	12.4	79	8.9	5	8	225	0.0	1020.4	215	0.000	0.5
20090614 07:10	12.8	12.8	12.8	79	9.2	2	5	225	0.0	1020.4	231	0.000	0.5
20090614 07:15	13.1	13.1	13.1	77	9.1	5	6	225	0.0	1020.4	245	0.000	0.6
20090614 07:20	13.3	13.3	13.3	77	9.4	3	6	225	0.0	1020.3	259	0.000	0.7
20090614 07:25	13.7	13.7	13.7	77	9.7	5	8	225	0.0	1020.2	271	0.000	0.7
20090614 07:30	14.0	14.0	14.0	75	9.6	3	6	225	0.0	1020.3	285	0.000	0.8
20090614 07:35	14.3	14.3	14.3	73	9.6	2	5	225	0.0	1020.2	300	0.000	0.9
20090614 07:40	14.7	14.7	14.7	72	9.7	3	6	225	0.0	1020.2	314	0.000	1.0
20090614 07:45	15.0	15.0	15.0	72	10.0	2	8	225	0.0	1020.2	327	0.000	1.0
20090614 07:50	15.4	15.4	15.4	72	10.4	2	5	225	0.0	1020.1	342	0.000	1.1
20090614 07:55	15.9	15.9	15.9	70	10.4	2	5	225	0.0	1020.0	356	0.000	1.2
20090614 08:00	16.2	16.2	16.2	68	10.3	3	6	225	0.0	1020.1	368	0.152	1.3
20090614 08:05	16.7	16.7	16.7	68	10.7	2	5	225	0.0	1019.9	383	0.000	1.4
20090614 08:10	17.2	17.2	17.2	65	10.6	2	5	225	0.0	1020.0	396	0.000	1.5
20090614 08:15	17.5	17.5	17.5	67	11.3	2	5	225	0.0	1019.9	413	0.000	1.6
20090614 08:20	18.1	18.1	18.1	68	12.1	2	6	225	0.0	1019.8	425	0.000	1.7
20090614 08:25	18.8	18.8	18.8	59	10.6	2	6	225	0.0	1019.7	440	0.000	1.8
20090614 08:30	19.1	19.1	19.1	56	10.1	3	8	225	0.0	1019.8	451	0.000	1.9
20090614 08:35	19.4	19.4	19.4	55	10.1	3	10	180	0.0	1019.7	463	0.000	2.0
20090614 08:40	19.7	19.7	19.7	57	10.9	3	8	180	0.0	1019.7	474	0.000	2.2
20090614 08:45	19.7	19.7	19.7	55	10.4	3	8	180	0.0	1019.7	489	0.000	2.3
20090614 08:50	19.5	19.5	19.5	57	10.7	3	10	180	0.0	1019.7	500	0.000	2.4
20090614 08:55	19.6	19.6	19.6	57	10.8	3	8	158	0.0	1019.8	517	0.000	2.5
20090614 09:00	19.7	19.7	19.7	56	10.7	5	11	135	0.0	1019.7	528	0.279	2.7
20090614 09:05	19.9	19.9	19.9	54	10.4	5	11	135	0.0	1019.9	541	0.000	2.8
20090614 09:10	20.1	20.1	20.1	54	10.5	6	11	112	0.0	1019.8	554	0.000	3.0
20090614 09:15	20.0	20.0	20.0	53	10.1	6	11	112	0.0	1019.7	569	0.000	3.1
20090614 09:20	20.1	20.1	20.1	56	11.0	5	11	135	0.0	1019.6	581	0.000	3.3
20090614 09:25	20.1	20.1	20.1	53	10.2	8	11	112	0.0	1019.7	595	0.000	3.5
20090614 09:30	20.2	20.2	20.2	54	10.6	5	11	135	0.0	1019.7	607	0.000	3.6
20090614 09:35	20.4	20.4	20.4	53	10.5	6	14	112	0.0	1019.7	619	0.000	3.8
20090614 09:40	20.5	20.5	20.5	55	11.1	3	8	112	0.0	1019.6	629	0.000	3.9
20090614 09:45	21.0	21.0	21.0	57	12.1	3	8	112	0.0	1019.5	641	0.000	4.1
20090614 09:50	21.0	21.0	21.0	54	11.3	3	8	135	0.0	1019.6	654	0.000	4.3
20090614 09:55	21.2	21.2	21.2	53	11.2	3	8	158	0.0	1019.5	665	0.000	4.4
20090614 10:00	21.2	21.2	21.2	49	10.1	6	14	112	0.0	1019.5	677	0.381	4.6
20090614 10:05	21.2	21.2	21.2	50	10.3	6	11	112	0.0	1019.6	689	0.000	4.8
20090614 10:10	21.1	21.1	21.1	53	11.1	6	11	135	0.0	1019.5	700	0.000	4.9
20090614 10:15	21.2	21.2	21.2	51	10.6	6	11	135	0.0	1019.5	710	0.000	5.1
20090614 10:20	21.2	21.2	21.2	51	10.7	6	14	112	0.0	1019.4	718	0.000	5.2
20090614 10:25	21.4	21.4	21.4	53	11.5	6	14	112	0.0	1019.3	730	0.000	5.4
20090614 10:30	21.4	21.4	21.4	50	10.5	8	14	112	0.0	1019.2	741	0.000	5.6
20090614 10:35	21.2	21.2	21.2	52	10.9	6	16	112	0.0	1019.2	749	0.000	5.8
20090614 10:40	21.3	21.3	21.3	51	10.8	6	16	135	0.0	1019.2	759	0.000	5.9
20090614 10:45	21.5	21.5	21.5	51	10.9	6	14	180	0.0	1019.0	766	0.000	6.1
20090614 10:50	21.7	21.7	21.7	51	11.1	6	14	112	0.0	1019.0	775	0.000	6.3
20090614 10:55	21.8	21.8	21.8	51	11.2	5	13	158	0.0	1018.9	785	0.000	6.5
20090614 11:00	21.8	21.8	21.8	51	11.2	6	11	135	0.0	1018.9	793	0.483	6.6
20090614 11:05	21.8	21.8	21.8	52	11.5	3	11	112	0.0	1018.9	802	0.000	6.8
20090614 11:10	22.1	22.1	22.1	52	11.7	6	14	135	0.0	1018.7	811	0.000	6.9
20090614 11:15	22.3	22.3	22.3	50	11.4	5	14	135	0.0	1018.8	818	0.000	7.1
20090614 11:20	22.6	22.6	22.6	48	11.0	3	11	158	0.0	1018.8	827	0.000	7.3
20090614 11:25	22.7	22.7	22.7	49	11.4	5	10	158	0.0	1018.7	834	0.000	7.4
20090614 11:30	22.8	22.8	22.8	48	11.2	6	14	135	0.0	1018.6	843	0.000	7.6
20090614 11:35	22.8	22.8	22.8	49	11.5	8	11	135	0.0	1018.6	848	0.000	7.7
20090614 11:40	22.7	22.7	22.7	49	11.4	5	10	90	0.0	1018.7	852	0.000	7.8
20090614 11:45	22.9	22.9	22.9	48	11.3	8	16	90	0.0	1018.6	857	0.000	7.9
20090614 11:50	23.0	23.0	23.0	48	11.4	6	14	112	0.0	1018.6	858	0.000	8.0
20090614 11:55	23.0	23.0	23.0	49	11.7	6	11	135	0.0	1018.5	867	0.000	8.1
20090614 12:00	23.2	23.2	23.2	49	11.9	6	16	135	0.0	1018.3	875	0.559	8.3
20090614 12:05	23.3	23.3	23.3	48	11.7	8	14	135	0.0	1018.5	895	0.000	8.1
20090614 12:10	23.4	23.4	23.4	48	11.7	3	8	158	0.0	1018.4	910	0.000	7.0
20090614 12:15	23.4	23.4	23.4	49	12.1	3	10	112	0.0	1018.4	933	0.000	8.6
20090614 12:20	23.7	23.7	23.7	47	11.7	3	10	112	0.0	1018.3	952	0.000	8.7
20090614 12:25	23.8	23.8	23.8	48	12.1	6	10	112	0.0	1018.2	933	0.000	8.7
20090614 12:30	24.1	24.1	25.4	48	12.4	5	13	68	0.0	1018.2	924	0.000	8.8
20090614 12:35	24.1	24.1	25.4	47	12.0	5	10	135	0.0	1018.2	935	0.000	8.9
20090614 12:40	24.2	24.2	25.5	47	12.2	5	10	180	0.0	1018.1	975	0.000	9.1
20090614 12:45	24.3	24.3	25.5	47	12.3	2	6	158	0.0	1018.1	533	0.000	8.0
20090614 12:50	24.4	24.4	25.5	46	12.0	5	11	135	0.0	1018.0	933	0.000	8.1
20090614 12:55	24.2	24.2	25.5	46	11.9	6	11	135	0.0	1017.9	888	0.000	8.8
20090614 13:00	24.2	24.2	25.5	48	12.5	5	10	45	0.0	1017.8	894	0.584	8.9
20090614 13:05	24.3	24.3	25.5	47	12.3	5	13	45	0.0	1018.0	910	0.000	9.0
20090614 13:10	24.6	24.6	25.6	47	12.5	5	11	112	0.0	1017.9	855	0.000	8.8
20090614 13:15	24.8	24.8	25.7	45	12.1	2	8	112	0.0	1017.7	911	0.000	9.0
20090614 13:20	24.9	24.9	25.8	45	12.2	3	10	68	0.0	1017.6	883	0.000	8.7
20090614 13:25	25.1	25.1	25.8	44	12.0	3	8	112	0.0	1017.7	845	0.000	8.5
20090614 13:30	25.3	25.3	26.1	49	13.8	2	5	112	0.0	1017.6	878	0.000	8.6
20090614 13:35	25.4	25.4	26.0	44	12.2	3	8	112	0.0	1017.5	912	0.000	8.9
20090614 13:40	25.5	25.5	26.1	45	12.7	3	8	90	0.0	1017.5	889	0.000	8.8
20090614 13:45	25.6	25.6	26.1	44	12.4	3	10	90	0.0	1017.4	863	0.000	8.4
20090614 13:50	25.4	25.4	26.0	45	12.6	3	10	68	0.0	1017.3	784	0.000	7.8
20090614 13:55	25.3	25.3	26.0	45	12.5	3	8	90	0.0	1017.2	841	0.000	7.5
20090614 14:00	25.3	25.3	26.0	45	12.5	6	11	112	0.0	1017.3	837	0.559	7.7
20090614 14:05	25.6	25.6	26.1	46	13.1	3	8	112	0.0	1017.2	808	0.000	7.9
20090614 14:10	25.7	25.7	26.2	45	12.9	5	8	45	0.0	1017.2	810	0.000	7.8
20090614 14:15	25.6	25.6	26.1	44	12.4	5	10	45	0.0	1017.1	813	0.000	7.6
20090614 14:20	25.5	25.5	26.1	46	13.0	5	11	45	0.0	1017.1	242	0.000	4.7
20090614 14:25	25.6	25.6	26.1	46	13.1	3	8	22	0.0	1017.0	726	0.000	7.2
20090614 14:30	25.7	25.7	26.2	46	13.2	5	8	68	0.0	1017.0	750	0.000	6.6
20090614 14:35	26.1	26.1	26.5	46	13.5	2	5	45	0.0	1017.0	860	0.000	7.1
20090614 14:40	26.2	26.2	26.5	46	13.6	3	6	45	0.0	1016.9	892	0.000	7.1
20090614 14:45	26.4	26.4	26.7	46	13.9	3	6	45	0.0	1016.8	838	0.000	7.5
20090614 14:50	26.7	26.7	26.9	45	13.8	2	6	45	0.0	1016.8	758	0.000	5.6
20090614 14:55	26.7	26.7	26.8	43	13.1	3	10	22	0.0	1016.7	305	0.000	3.9
20090614 15:00	26.5	26.5	26.6	43	12.9	2	5	22	0.0	1016.8	377	0.457	5.1
20090614 15:05	26.4	26.4	26.7	46	13.9	2	6	22	0.0	1016.8	668	0.000	6.0
20090614 15:10	26.3	26.3	26.5	43	12.7	5	8	22	0.0	1016.7	872	0.000	7.2
20090614 15:15	26.4	26.4	26.7	46	13.8	2	5	45	0.0	1016.7	756	0.000	6.5
20090614 15:20	26.7	26.7	26.9	44	13.4	2	6	45	0.0	1016.6	548	0.000	5.4
20090614 15:25	27.0	27.0	27.0	42	13.0	0	5	45	0.0	1016.4	602	0.000	5.2
20090614 15:30	27.2	27.2	27.2	44	13.8	2	5	45	0.0	1016.3	674	0.000	5.7
20090614 15:35	27.2	27.2	27.1	42	13.1	3	8	45	0.0	1016.3	651	0.000	5.5
20090614 15:40	27.1	27.1	27.2	45	14.1	3	8	22	0.0	1016.3	666	0.000	5.5
20090614 15:45	27.3	27.3	27.3	44	14.0	3	8	315	0.0	1016.2	710	0.000	5.7
20090614 15:50	27.6	27.6	27.5	42	13.5	3	5	315	0.0	1016.2	650	0.000	5.3
20090614 15:55	27.6	27.6	27.6	45	14.5	2	5	22	0.0	1016.2	415	0.000	4.9
20090614 16:00	27.7	27.7	27.5	42	13.6	2	6	22	0.0	1016.1	585	0.457	4.6
20090614 16:05	27.4	27.4	27.4	43	13.7	3	8	22	0.0	1016.2	421	0.000	3.9
20090614 16:10	27.4	27.4	27.8	49	15.8	2	5	22	0.0	1016.1	540	0.000	4.3
20090614 16:15	27.5	27.5	27.5	44	14.1	2	6	22	0.0	1016.0	520	0.000	4.1
20090614 16:20	27.7	27.7	27.8	46	15.0	2	6	22	0.0	1016.0	521	0.000	4.0
20090614 16:25	27.8	27.8	27.8	44	14.4	2	3	0	0.0	1016.0	452	0.000	3.5
20090614 16:30	27.8	27.8	27.9	45	14.8	2	6	0	0.0	1016.0	379	0.000	3.2
20090614 16:35	27.6	27.6	27.8	47	15.3	0	3	0	0.0	1016.0	369	0.000	3.0
20090614 16:40	27.6	27.6	27.7	46	14.9	2	5	0	0.0	1016.1	400	0.000	3.0
20090614 16:45	27.4	27.4	27.7	48	15.4	2	5	0	0.0	1016.1	440	0.000	3.1
20090614 16:50	27.4	27.4	27.4	44	14.0	3	10	338	0.0	1016.1	612	0.000	3.7
20090614 16:55	27.3	27.3	27.4	45	14.3	3	10	45	0.0	1016.1	658	0.000	3.9
20090614 17:00	27.2	27.2	27.6	49	15.6	3	8	22	0.0	1016.0	545	0.330	3.4
20090614 17:05	27.3	27.3	27.5	47	15.0	2	6	22	0.0	1015.9	513	0.000	3.1
20090614 17:10	27.4	27.4	27.7	48	15.4	2	6	22	0.0	1015.9	576	0.000	3.2
20090614 17:15	27.4	27.4	27.6	47	15.1	5	11	22	0.0	1016.0	551	0.000	3.1
20090614 17:20	27.5	27.5	27.7	47	15.2	3	8	0	0.0	1016.0	552	0.000	3.0
20090614 17:25	27.4	27.4	27.6	46	14.8	3	8	45	0.0	1015.9	554	0.000	2.8
20090614 17:30	27.4	27.4	27.5	46	14.7	6	11	22	0.0	1015.9	519	0.000	2.6
20090614 17:35	27.3	27.3	27.5	46	14.7	3	11	22	0.0	1015.9	511	0.000	2.5
20090614 17:40	27.6	27.6	27.7	46	14.9	3	8	22	0.0	1015.9	494	0.000	2.4
20090614 17:45	27.8	27.8	27.9	46	15.1	2	6	22	0.0	1015.8	475	0.000	2.2
20090614 17:50	27.8	27.8	27.8	44	14.4	6	13	22	0.0	1015.8	438	0.000	2.0
20090614 17:55	27.8	27.8	27.7	44	14.4	3	11	22	0.0	1015.8	437	0.000	1.9
20090614 18:00	28.1	28.1	28.1	45	15.0	3	8	22	0.0	1015.8	421	0.356	1.8
20090614 18:05	28.4	28.4	28.3	44	14.9	3	10	315	0.0	1015.5	362	0.000	1.6
20090614 18:10	28.4	28.4	28.4	44	15.0	3	10	315	0.0	1015.5	239	0.000	1.4
20090614 18:15	28.1	28.1	27.8	41	13.6	10	19	292	0.0	1015.6	189	0.000	1.2
20090614 18:20	27.7	27.7	27.4	40	12.8	10	19	292	0.0	1015.7	178	0.000	1.1
20090614 18:25	27.3	27.3	27.3	43	13.6	6	14	292	0.0	1015.8	151	0.000	1.0
20090614 18:30	27.1	27.1	27.0	42	13.0	8	18	292	0.0	1015.8	141	0.000	0.8
20090614 18:35	26.8	26.8	26.8	41	12.4	10	19	292	0.0	1015.9	148	0.000	0.8
20090614 18:40	26.7	26.7	26.7	42	12.7	8	14	292	0.0	1015.9	171	0.000	0.8
20090614 18:45	26.6	26.6	26.7	43	12.9	8	16	292	0.0	1015.8	165	0.000	0.8
20090614 18:50	26.4	26.4	26.6	42	12.5	6	16	292	0.0	1015.8	140	0.000	0.7
20090614 18:55	26.3	26.3	26.5	43	12.7	6	16	292	0.0	1015.9	114	0.000	0.6
20090614 19:00	26.2	26.2	26.4	43	12.6	6	11	315	0.0	1016.1	104	0.178	0.5
20090614 19:05	25.9	25.9	26.3	44	12.7	6	10	315	0.0	1015.5	97	0.000	0.2
20090614 19:10	25.8	25.8	26.2	44	12.6	5	10	315	0.0	1015.6	96	0.000	0.0
20090614 19:15	25.7	25.7	26.2	45	12.9	5	6	315	0.0	1015.7	103	0.000	0.0
20090614 19:20	25.6	25.6	26.1	45	12.8	3	6	292	0.0	1015.8	105	0.000	0.0
20090614 19:25	25.6	25.6	26.2	47	13.4	3	6	315	0.0	1015.8	102	0.000	0.0
20090614 19:30	25.5	25.5	26.1	47	13.3	3	8	315	0.0	1015.8	91	0.000	0.0
20090614 19:35	25.3	25.3	26.0	46	12.9	5	11	315	0.0	1015.9	75	0.000	0.0
20090614 19:40	25.2	25.2	25.9	46	12.8	6	11	315	0.0	1016.0	67	0.000	0.0
20090614 19:45	25.1	25.1	25.9	47	13.0	5	6	315	0.0	1016.0	60	0.000	0.0
20090614 19:50	25.0	25.0	25.8	47	12.9	5	6	315	0.0	1016.0	56	0.000	0.0
20090614 19:55	24.9	24.9	25.8	48	13.1	6	11	315	0.0	1016.1	55	0.000	0.0
20090614 20:00	24.7	24.7	25.7	49	13.3	5	10	315	0.0	1016.1	48	0.102	0.0
20090614 20:05	24.6	24.6	25.7	51	13.7	3	6	315	0.0	1015.8	40	0.000	0.0
20090614 20:10	24.4	24.4	25.6	52	13.9	2	5	315	0.0	1015.8	45	0.000	0.0
20090614 20:15	24.2	24.2	25.5	52	13.7	0	3	315	0.0	1015.8	45	0.000	0.0
20090614 20:20	24.1	24.1	25.4	52	13.6	2	3	315	0.0	1016.0	28	0.000	0.0
20090614 20:25	24.0	24.0	25.4	53	13.8	2	5	315	0.0	1016.0	15	0.000	0.0
20090614 20:30	23.9	23.9	25.4	53	13.8	0	3	315	0.0	1016.0	13	0.000	0.0
20090614 20:35	23.9	23.9	25.3	56	14.6	0	2	315	0.0	1016.0	14	0.000	0.0
20090614 20:40	23.8	23.8	23.8	56	14.5	0	0	-100000	0.0	1015.9	12	0.000	0.0
20090614 20:45	23.6	23.6	23.6	56	14.3	0	0	-100000	0.0	1016.1	8	0.000	0.0
20090614 20:50	23.4	23.4	23.4	57	14.4	0	2	315	0.0	1016.0	3	0.000	0.0
20090614 20:55	23.3	23.3	23.3	57	14.3	0	0	-100000	0.0	1016.1	0	0.000	0.0
20090614 21:00	23.2	23.2	23.2	58	14.4	0	2	315	0.0	1016.3	0	0.025	0.0
20090614 21:05	23.1	23.1	23.1	59	14.6	2	5	315	0.0	1016.4	0	0.000	0.0
20090614 21:10	22.9	22.9	22.9	59	14.5	6	19	315	0.0	1016.9	0	0.000	0.0
20090614 21:15	22.5	22.5	22.5	63	15.1	10	21	315	0.0	1017.1	0	0.000	0.0
20090614 21:20	21.8	21.8	21.8	67	15.4	26	42	315	0.2	1018.0	0	0.000	0.0
20090614 21:25	20.1	20.1	20.1	73	15.1	23	42	315	1.2	1017.8	0	0.000	0.0
20090614 21:30	19.2	19.2	19.2	78	15.2	8	31	292	0.2	1017.7	0	0.000	0.0
20090614 21:35	18.7	18.7	18.7	81	15.3	5	14	22	0.0	1017.2	0	0.000	0.0
20090614 21:40	18.4	18.4	18.4	82	15.3	2	6	22	0.0	1017.4	0	0.000	0.0
20090614 21:45	18.2	18.2	18.2	83	15.3	0	5	22	0.0	1017.3	0	0.000	0.0
20090614 21:50	18.0	18.0	18.0	84	15.3	2	5	22	0.0	1017.2	0	0.000	0.0
20090614 21:55	17.9	17.9	17.9	85	15.4	0	2	22	0.0	1017.3	0	0.000	0.0
20090614 22:00	17.9	17.9	17.9	86	15.6	2	5	22	0.0	1017.4	0	0.051	0.0
20090614 22:05	18.0	18.0	18.0	87	15.8	3	8	158	0.0	1017.6	0	0.000	0.0
20090614 22:10	17.9	17.9	17.9	87	15.7	6	11	202	0.0	1017.8	0	0.000	0.0
20090614 22:15	17.8	17.8	17.8	86	15.5	8	11	225	0.0	1017.7	0	0.000	0.0
20090614 22:20	17.8	17.8	17.8	86	15.4	6	10	225	0.0	1018.1	0	0.000	0.0
20090614 22:25	17.7	17.7	17.7	86	15.3	6	11	225	0.0	1018.1	0	0.000	0.0
20090614 22:30	17.6	17.6	17.6	86	15.2	5	10	225	0.0	1018.1	0	0.000	0.0
20090614 22:35	17.4	17.4	17.4	86	15.1	6	11	202	0.0	1018.1	0	0.000	0.0
20090614 22:40	17.4	17.4	17.4	87	15.2	5	8	202	0.0	1018.1	0	0.000	0.0
20090614 22:45	17.4	17.4	17.4	87	15.2	5	8	202	0.0	1018.2	0	0.000	0.0
20090614 22:50	17.4	17.4	17.4	87	15.2	5	8	202	0.0	1018.1	0	0.000	0.0
20090614 22:55	17.4	17.4	17.4	87	15.3	3	6	202	0.0	1018.0	0	0.000	0.0
20090614 23:00	17.5	17.5	17.5	87	15.3	2	6	202	0.0	1018.0	0	0.025	0.0
20090614 23:05	17.6	17.6	17.6	87	15.4	0	3	202	0.0	1017.8	0	0.000	0.0
20090614 23:10	17.6	17.6	17.6	87	15.4	0	5	202	0.0	1017.6	0	0.000	0.0
20090614 23:15	17.6	17.6	17.6	88	15.5	2	3	202	0.0	1017.6	0	0.000	0.0
20090614 23:20	17.6	17.6	17.6	88	15.6	0	3	202	0.0	1017.4	0	0.000	0.0
20090614 23:25	17.7	17.7	17.7	88	15.7	3	6	202	0.0	1017.3	0	0.000	0.0
20090614 23:30	17.7	17.7	17.7	87	15.5	3	6	202	0.0	1017.3	0	0.000	0.0
20090614 23:35	17.7	17.7	17.7	87	15.5	3	8	202	0.0	1017.2	0	0.000	0.0
20090614 23:40	17.7	17.7	17.7	87	15.5	5	10	202	0.0	1017.2	0	0.000	0.0
20090614 23:45	17.7	17.7	17.7	87	15.5	5	11	180	0.0	1017.4	0	0.000	0.0
20090614 23:50	17.7	17.7	17.7	87	15.5	3	8	180	0.0	1017.7	0	0.000	0.0
20090614 23:55	17.6	17.6	17.6	87	15.4	6	11	180	0.0	1017.7	0	0.000	0.0



Please note the license to use and transfer of this data:
http://creativecommons.org/licenses/by-nc-sa/3.0/deed.en

Bitte beachten sie die Lizenz zur Verwertung und Weitergabe der Daten:
http://creativecommons.org/licenses/by-nc-sa/3.0/deed.de

zurück zur Übersicht der Archivdaten (Monats und Tagesdaten)

Cookies helfen bei der Bereitstellung von Inhalten. Durch die Nutzung dieser Seiten erklärst du dich damit einverstanden, dass Cookies auf deinem Rechner gespeichert werden. Weitere Information